sensor_id;sensor_type;location;lat;lon;timestamp;P1;durP1;ratioP1;P2;durP2;ratioP2
58152;SDS011;43967;51.634;5.566;2023-09-18T00:01:56;8.85;;;4.20;;
58152;SDS011;43967;51.634;5.566;2023-09-18T00:07:18;9.33;;;4.23;;
58152;SDS011;43967;51.634;5.566;2023-09-18T00:12:39;9.00;;;3.80;;
58152;SDS011;43967;51.634;5.566;2023-09-18T00:18:01;8.25;;;4.70;;
58152;SDS011;43967;51.634;5.566;2023-09-18T00:23:22;8.30;;;4.33;;
58152;SDS011;43967;51.634;5.566;2023-09-18T00:28:43;8.20;;;4.53;;
58152;SDS011;43967;51.634;5.566;2023-09-18T00:34:05;9.55;;;4.35;;
58152;SDS011;43967;51.634;5.566;2023-09-18T00:39:26;8.90;;;4.53;;
58152;SDS011;43967;51.634;5.566;2023-09-18T00:44:47;7.60;;;4.33;;
58152;SDS011;43967;51.634;5.566;2023-09-18T00:50:09;8.07;;;4.35;;
58152;SDS011;43967;51.634;5.566;2023-09-18T00:55:33;8.68;;;4.45;;
58152;SDS011;43967;51.634;5.566;2023-09-18T01:00:57;7.77;;;4.00;;
58152;SDS011;43967;51.634;5.566;2023-09-18T01:06:19;8.65;;;4.60;;
58152;SDS011;43967;51.634;5.566;2023-09-18T01:17:20;8.10;;;4.13;;
58152;SDS011;43967;51.634;5.566;2023-09-18T01:22:42;8.10;;;4.40;;
58152;SDS011;43967;51.634;5.566;2023-09-18T01:28:03;8.05;;;4.20;;
58152;SDS011;43967;51.634;5.566;2023-09-18T01:33:24;8.40;;;4.10;;
58152;SDS011;43967;51.634;5.566;2023-09-18T01:38:48;7.80;;;4.10;;
58152;SDS011;43967;51.634;5.566;2023-09-18T01:44:10;8.30;;;4.30;;
58152;SDS011;43967;51.634;5.566;2023-09-18T01:49:33;8.98;;;4.32;;
58152;SDS011;43967;51.634;5.566;2023-09-18T01:54:58;8.13;;;4.03;;
58152;SDS011;43967;51.634;5.566;2023-09-18T02:00:19;7.40;;;3.85;;
58152;SDS011;43967;51.634;5.566;2023-09-18T02:05:40;8.18;;;4.13;;
58152;SDS011;43967;51.634;5.566;2023-09-18T02:11:01;7.47;;;4.00;;
58152;SDS011;43967;51.634;5.566;2023-09-18T02:16:23;7.63;;;3.80;;
58152;SDS011;43967;51.634;5.566;2023-09-18T02:21:44;7.22;;;3.78;;
58152;SDS011;43967;51.634;5.566;2023-09-18T02:27:05;8.63;;;4.03;;
58152;SDS011;43967;51.634;5.566;2023-09-18T02:32:27;7.27;;;3.77;;
58152;SDS011;43967;51.634;5.566;2023-09-18T02:37:48;8.32;;;3.78;;
58152;SDS011;43967;51.634;5.566;2023-09-18T02:43:09;7.28;;;3.67;;
58152;SDS011;43967;51.634;5.566;2023-09-18T02:48:30;8.43;;;3.90;;
58152;SDS011;43967;51.634;5.566;2023-09-18T02:53:52;8.65;;;3.90;;
58152;SDS011;43967;51.634;5.566;2023-09-18T02:59:13;7.05;;;3.33;;
58152;SDS011;43967;51.634;5.566;2023-09-18T03:04:35;7.60;;;3.77;;
58152;SDS011;43967;51.634;5.566;2023-09-18T03:09:56;7.80;;;3.70;;
58152;SDS011;43967;51.634;5.566;2023-09-18T03:15:17;7.65;;;3.60;;
58152;SDS011;43967;51.634;5.566;2023-09-18T03:20:38;8.18;;;3.63;;
58152;SDS011;43967;51.634;5.566;2023-09-18T03:26:00;7.40;;;3.60;;
58152;SDS011;43967;51.634;5.566;2023-09-18T03:31:21;7.70;;;4.18;;
58152;SDS011;43967;51.634;5.566;2023-09-18T03:36:42;7.60;;;3.65;;
58152;SDS011;43967;51.634;5.566;2023-09-18T03:42:04;6.80;;;3.13;;
58152;SDS011;43967;51.634;5.566;2023-09-18T03:47:25;7.20;;;3.60;;
58152;SDS011;43967;51.634;5.566;2023-09-18T03:52:46;7.40;;;3.70;;
58152;SDS011;43967;51.634;5.566;2023-09-18T03:58:07;6.90;;;3.33;;
58152;SDS011;43967;51.634;5.566;2023-09-18T04:03:29;7.30;;;4.00;;
58152;SDS011;43967;51.634;5.566;2023-09-18T04:08:50;7.93;;;3.58;;
58152;SDS011;43967;51.634;5.566;2023-09-18T04:14:11;7.00;;;3.45;;
58152;SDS011;43967;51.634;5.566;2023-09-18T04:19:33;7.30;;;3.63;;
58152;SDS011;43967;51.634;5.566;2023-09-18T04:24:54;7.10;;;3.50;;
58152;SDS011;43967;51.634;5.566;2023-09-18T04:30:15;7.97;;;3.92;;
58152;SDS011;43967;51.634;5.566;2023-09-18T04:35:37;7.63;;;3.60;;
58152;SDS011;43967;51.634;5.566;2023-09-18T04:40:59;8.00;;;3.70;;
58152;SDS011;43967;51.634;5.566;2023-09-18T04:46:20;7.32;;;3.53;;
58152;SDS011;43967;51.634;5.566;2023-09-18T04:51:42;7.53;;;3.27;;
58152;SDS011;43967;51.634;5.566;2023-09-18T04:57:03;7.10;;;3.47;;
58152;SDS011;43967;51.634;5.566;2023-09-18T05:02:24;8.23;;;3.50;;
58152;SDS011;43967;51.634;5.566;2023-09-18T05:07:46;7.28;;;3.50;;
58152;SDS011;43967;51.634;5.566;2023-09-18T05:13:07;8.07;;;3.30;;
58152;SDS011;43967;51.634;5.566;2023-09-18T05:18:28;7.65;;;3.42;;
58152;SDS011;43967;51.634;5.566;2023-09-18T05:23:49;7.78;;;3.30;;
58152;SDS011;43967;51.634;5.566;2023-09-18T05:29:11;6.93;;;3.40;;
58152;SDS011;43967;51.634;5.566;2023-09-18T05:34:32;8.75;;;3.67;;
58152;SDS011;43967;51.634;5.566;2023-09-18T05:39:53;7.22;;;3.45;;
58152;SDS011;43967;51.634;5.566;2023-09-18T05:45:15;7.13;;;3.53;;
58152;SDS011;43967;51.634;5.566;2023-09-18T05:50:36;7.07;;;3.30;;
58152;SDS011;43967;51.634;5.566;2023-09-18T05:55:59;8.23;;;3.50;;
58152;SDS011;43967;51.634;5.566;2023-09-18T06:01:20;6.82;;;3.30;;
58152;SDS011;43967;51.634;5.566;2023-09-18T06:06:41;7.33;;;3.13;;
58152;SDS011;43967;51.634;5.566;2023-09-18T06:12:02;7.40;;;3.40;;
58152;SDS011;43967;51.634;5.566;2023-09-18T06:17:24;7.03;;;3.47;;
58152;SDS011;43967;51.634;5.566;2023-09-18T06:22:45;7.30;;;3.20;;
58152;SDS011;43967;51.634;5.566;2023-09-18T06:28:07;8.27;;;3.08;;
58152;SDS011;43967;51.634;5.566;2023-09-18T06:33:28;9.02;;;2.83;;
58152;SDS011;43967;51.634;5.566;2023-09-18T06:38:49;7.20;;;3.00;;
58152;SDS011;43967;51.634;5.566;2023-09-18T06:44:10;7.40;;;2.77;;
58152;SDS011;43967;51.634;5.566;2023-09-18T06:49:32;7.63;;;2.78;;
58152;SDS011;43967;51.634;5.566;2023-09-18T06:54:53;8.90;;;3.17;;
58152;SDS011;43967;51.634;5.566;2023-09-18T07:00:15;9.70;;;2.67;;
58152;SDS011;43967;51.634;5.566;2023-09-18T07:05:36;6.90;;;2.25;;
58152;SDS011;43967;51.634;5.566;2023-09-18T07:10:58;9.13;;;2.30;;
58152;SDS011;43967;51.634;5.566;2023-09-18T07:16:19;7.17;;;2.50;;
58152;SDS011;43967;51.634;5.566;2023-09-18T07:21:41;6.80;;;2.10;;
58152;SDS011;43967;51.634;5.566;2023-09-18T07:27:02;6.68;;;1.83;;
58152;SDS011;43967;51.634;5.566;2023-09-18T07:32:24;9.33;;;2.47;;
58152;SDS011;43967;51.634;5.566;2023-09-18T07:37:46;6.73;;;2.30;;
58152;SDS011;43967;51.634;5.566;2023-09-18T07:43:07;7.25;;;2.25;;
58152;SDS011;43967;51.634;5.566;2023-09-18T07:48:28;8.13;;;1.90;;
58152;SDS011;43967;51.634;5.566;2023-09-18T07:53:49;6.87;;;2.10;;
58152;SDS011;43967;51.634;5.566;2023-09-18T07:59:11;6.88;;;2.47;;
58152;SDS011;43967;51.634;5.566;2023-09-18T08:04:32;7.13;;;2.10;;
58152;SDS011;43967;51.634;5.566;2023-09-18T08:09:53;6.63;;;2.20;;
58152;SDS011;43967;51.634;5.566;2023-09-18T08:15:15;7.63;;;1.92;;
58152;SDS011;43967;51.634;5.566;2023-09-18T08:20:40;9.25;;;2.15;;
58152;SDS011;43967;51.634;5.566;2023-09-18T08:26:02;6.60;;;2.13;;
58152;SDS011;43967;51.634;5.566;2023-09-18T08:31:23;6.53;;;1.67;;
58152;SDS011;43967;51.634;5.566;2023-09-18T08:36:44;6.30;;;1.85;;
58152;SDS011;43967;51.634;5.566;2023-09-18T08:42:07;7.68;;;2.03;;
58152;SDS011;43967;51.634;5.566;2023-09-18T08:47:29;5.40;;;1.57;;
58152;SDS011;43967;51.634;5.566;2023-09-18T08:52:51;7.60;;;1.70;;
58152;SDS011;43967;51.634;5.566;2023-09-18T08:58:13;6.45;;;1.90;;
58152;SDS011;43967;51.634;5.566;2023-09-18T09:03:34;6.50;;;2.20;;
58152;SDS011;43967;51.634;5.566;2023-09-18T09:08:56;11.18;;;1.75;;
58152;SDS011;43967;51.634;5.566;2023-09-18T09:14:18;7.25;;;1.90;;
58152;SDS011;43967;51.634;5.566;2023-09-18T09:19:39;7.87;;;2.00;;
58152;SDS011;43967;51.634;5.566;2023-09-18T09:25:00;6.20;;;1.73;;
58152;SDS011;43967;51.634;5.566;2023-09-18T09:30:22;6.07;;;1.80;;
58152;SDS011;43967;51.634;5.566;2023-09-18T09:35:47;7.78;;;2.00;;
58152;SDS011;43967;51.634;5.566;2023-09-18T09:41:09;6.33;;;2.13;;
58152;SDS011;43967;51.634;5.566;2023-09-18T09:46:34;6.60;;;2.00;;
58152;SDS011;43967;51.634;5.566;2023-09-18T09:51:58;6.25;;;1.90;;
58152;SDS011;43967;51.634;5.566;2023-09-18T09:57:20;6.30;;;2.00;;
58152;SDS011;43967;51.634;5.566;2023-09-18T10:02:41;7.75;;;2.03;;
58152;SDS011;43967;51.634;5.566;2023-09-18T10:08:04;7.85;;;2.30;;
58152;SDS011;43967;51.634;5.566;2023-09-18T10:13:46;7.10;;;2.00;;
58152;SDS011;43967;51.634;5.566;2023-09-18T10:24:47;7.03;;;2.08;;
58152;SDS011;43967;51.634;5.566;2023-09-18T10:30:18;9.10;;;2.00;;
58152;SDS011;43967;51.634;5.566;2023-09-18T10:35:40;6.57;;;2.00;;
58152;SDS011;43967;51.634;5.566;2023-09-18T10:41:03;7.45;;;2.17;;
58152;SDS011;43967;51.634;5.566;2023-09-18T10:46:26;6.53;;;2.28;;
58152;SDS011;43967;51.634;5.566;2023-09-18T10:51:48;8.27;;;2.30;;
58152;SDS011;43967;51.634;5.566;2023-09-18T10:57:13;6.78;;;2.00;;
58152;SDS011;43967;51.634;5.566;2023-09-18T11:02:35;8.88;;;2.28;;
58152;SDS011;43967;51.634;5.566;2023-09-18T11:13:52;7.23;;;2.40;;
58152;SDS011;43967;51.634;5.566;2023-09-18T11:19:16;6.85;;;2.05;;
58152;SDS011;43967;51.634;5.566;2023-09-18T11:24:38;5.72;;;1.83;;
58152;SDS011;43967;51.634;5.566;2023-09-18T11:29:59;6.27;;;2.00;;
58152;SDS011;43967;51.634;5.566;2023-09-18T11:35:21;6.75;;;2.00;;
58152;SDS011;43967;51.634;5.566;2023-09-18T11:40:43;6.97;;;2.28;;
58152;SDS011;43967;51.634;5.566;2023-09-18T11:46:04;6.93;;;2.10;;
58152;SDS011;43967;51.634;5.566;2023-09-18T11:51:25;6.78;;;2.00;;
58152;SDS011;43967;51.634;5.566;2023-09-18T11:56:48;6.68;;;2.25;;
58152;SDS011;43967;51.634;5.566;2023-09-18T12:02:09;6.30;;;2.07;;
58152;SDS011;43967;51.634;5.566;2023-09-18T12:07:31;7.23;;;2.57;;
58152;SDS011;43967;51.634;5.566;2023-09-18T12:12:52;6.65;;;2.25;;
58152;SDS011;43967;51.634;5.566;2023-09-18T12:18:14;6.63;;;2.13;;
58152;SDS011;43967;51.634;5.566;2023-09-18T12:23:36;7.33;;;2.00;;
58152;SDS011;43967;51.634;5.566;2023-09-18T12:28:58;7.55;;;2.50;;
58152;SDS011;43967;51.634;5.566;2023-09-18T12:34:21;6.28;;;2.13;;
58152;SDS011;43967;51.634;5.566;2023-09-18T12:39:42;6.73;;;2.13;;
58152;SDS011;43967;51.634;5.566;2023-09-18T12:45:04;6.20;;;2.33;;
58152;SDS011;43967;51.634;5.566;2023-09-18T12:50:25;6.80;;;2.55;;
58152;SDS011;43967;51.634;5.566;2023-09-18T12:55:47;5.90;;;2.30;;
58152;SDS011;43967;51.634;5.566;2023-09-18T13:01:10;5.90;;;1.93;;
58152;SDS011;43967;51.634;5.566;2023-09-18T13:06:31;6.13;;;2.58;;
58152;SDS011;43967;51.634;5.566;2023-09-18T13:11:53;6.60;;;2.65;;
58152;SDS011;43967;51.634;5.566;2023-09-18T13:17:16;7.00;;;2.40;;
58152;SDS011;43967;51.634;5.566;2023-09-18T13:22:38;7.40;;;2.25;;
58152;SDS011;43967;51.634;5.566;2023-09-18T13:28:00;7.00;;;2.25;;
58152;SDS011;43967;51.634;5.566;2023-09-18T13:33:23;6.17;;;2.40;;
58152;SDS011;43967;51.634;5.566;2023-09-18T13:38:44;6.82;;;2.05;;
58152;SDS011;43967;51.634;5.566;2023-09-18T13:44:05;7.18;;;2.08;;
58152;SDS011;43967;51.634;5.566;2023-09-18T13:49:27;5.60;;;2.23;;
58152;SDS011;43967;51.634;5.566;2023-09-18T13:54:48;6.80;;;2.40;;
58152;SDS011;43967;51.634;5.566;2023-09-18T14:00:09;6.30;;;2.22;;
58152;SDS011;43967;51.634;5.566;2023-09-18T14:05:31;6.70;;;2.50;;
58152;SDS011;43967;51.634;5.566;2023-09-18T14:10:52;6.23;;;2.20;;
58152;SDS011;43967;51.634;5.566;2023-09-18T14:16:13;6.10;;;2.10;;
58152;SDS011;43967;51.634;5.566;2023-09-18T14:21:35;6.50;;;2.30;;
58152;SDS011;43967;51.634;5.566;2023-09-18T14:26:56;5.53;;;1.80;;
58152;SDS011;43967;51.634;5.566;2023-09-18T14:32:17;5.80;;;2.00;;
58152;SDS011;43967;51.634;5.566;2023-09-18T14:37:38;6.18;;;2.22;;
58152;SDS011;43967;51.634;5.566;2023-09-18T14:43:00;5.83;;;2.20;;
58152;SDS011;43967;51.634;5.566;2023-09-18T14:48:21;6.03;;;1.90;;
58152;SDS011;43967;51.634;5.566;2023-09-18T14:53:42;5.90;;;2.08;;
58152;SDS011;43967;51.634;5.566;2023-09-18T14:59:05;6.68;;;2.03;;
58152;SDS011;43967;51.634;5.566;2023-09-18T15:04:27;5.93;;;1.80;;
58152;SDS011;43967;51.634;5.566;2023-09-18T15:09:48;6.50;;;2.35;;
58152;SDS011;43967;51.634;5.566;2023-09-18T15:15:09;6.00;;;2.30;;
58152;SDS011;43967;51.634;5.566;2023-09-18T15:20:31;5.90;;;2.20;;
58152;SDS011;43967;51.634;5.566;2023-09-18T15:25:52;6.43;;;2.20;;
58152;SDS011;43967;51.634;5.566;2023-09-18T15:31:13;5.45;;;1.83;;
58152;SDS011;43967;51.634;5.566;2023-09-18T15:36:35;6.50;;;2.10;;
58152;SDS011;43967;51.634;5.566;2023-09-18T15:41:56;5.83;;;1.90;;
58152;SDS011;43967;51.634;5.566;2023-09-18T15:47:17;5.68;;;2.10;;
58152;SDS011;43967;51.634;5.566;2023-09-18T15:52:39;5.68;;;1.98;;
58152;SDS011;43967;51.634;5.566;2023-09-18T15:58:00;5.97;;;2.00;;
58152;SDS011;43967;51.634;5.566;2023-09-18T16:03:22;7.88;;;1.90;;
58152;SDS011;43967;51.634;5.566;2023-09-18T16:08:44;6.25;;;1.80;;
58152;SDS011;43967;51.634;5.566;2023-09-18T16:14:05;5.97;;;2.20;;
58152;SDS011;43967;51.634;5.566;2023-09-18T16:19:26;6.28;;;1.85;;
58152;SDS011;43967;51.634;5.566;2023-09-18T16:24:47;5.97;;;1.80;;
58152;SDS011;43967;51.634;5.566;2023-09-18T16:30:09;5.63;;;1.90;;
58152;SDS011;43967;51.634;5.566;2023-09-18T16:35:31;6.13;;;1.90;;
58152;SDS011;43967;51.634;5.566;2023-09-18T16:40:52;5.75;;;1.98;;
58152;SDS011;43967;51.634;5.566;2023-09-18T16:46:13;5.72;;;1.80;;
58152;SDS011;43967;51.634;5.566;2023-09-18T16:51:35;7.27;;;1.80;;
58152;SDS011;43967;51.634;5.566;2023-09-18T16:56:57;6.95;;;1.67;;
58152;SDS011;43967;51.634;5.566;2023-09-18T17:02:18;6.75;;;1.92;;
58152;SDS011;43967;51.634;5.566;2023-09-18T17:07:39;5.57;;;1.70;;
58152;SDS011;43967;51.634;5.566;2023-09-18T17:13:01;6.07;;;1.80;;
58152;SDS011;43967;51.634;5.566;2023-09-18T17:18:22;6.40;;;1.98;;
58152;SDS011;43967;51.634;5.566;2023-09-18T17:23:43;7.10;;;2.00;;
58152;SDS011;43967;51.634;5.566;2023-09-18T17:29:05;6.70;;;2.07;;
58152;SDS011;43967;51.634;5.566;2023-09-18T17:34:26;6.53;;;2.13;;
58152;SDS011;43967;51.634;5.566;2023-09-18T17:39:47;8.55;;;2.15;;
58152;SDS011;43967;51.634;5.566;2023-09-18T17:45:09;6.53;;;1.70;;
58152;SDS011;43967;51.634;5.566;2023-09-18T17:50:30;5.43;;;1.58;;
58152;SDS011;43967;51.634;5.566;2023-09-18T17:55:51;6.53;;;1.83;;
58152;SDS011;43967;51.634;5.566;2023-09-18T18:01:13;7.13;;;1.87;;
58152;SDS011;43967;51.634;5.566;2023-09-18T18:06:34;7.20;;;2.00;;
58152;SDS011;43967;51.634;5.566;2023-09-18T18:11:55;7.28;;;1.92;;
58152;SDS011;43967;51.634;5.566;2023-09-18T18:17:17;5.80;;;1.90;;
58152;SDS011;43967;51.634;5.566;2023-09-18T18:22:38;7.60;;;1.83;;
58152;SDS011;43967;51.634;5.566;2023-09-18T18:28:00;7.25;;;2.00;;
58152;SDS011;43967;51.634;5.566;2023-09-18T18:33:21;5.68;;;1.98;;
58152;SDS011;43967;51.634;5.566;2023-09-18T18:38:42;7.07;;;1.80;;
58152;SDS011;43967;51.634;5.566;2023-09-18T18:44:03;7.63;;;1.77;;
58152;SDS011;43967;51.634;5.566;2023-09-18T18:49:25;7.35;;;1.88;;
58152;SDS011;43967;51.634;5.566;2023-09-18T18:54:46;6.93;;;1.83;;
58152;SDS011;43967;51.634;5.566;2023-09-18T19:00:08;7.47;;;1.80;;
58152;SDS011;43967;51.634;5.566;2023-09-18T19:05:30;6.57;;;1.70;;
58152;SDS011;43967;51.634;5.566;2023-09-18T19:10:51;7.10;;;1.80;;
58152;SDS011;43967;51.634;5.566;2023-09-18T19:16:12;6.23;;;1.90;;
58152;SDS011;43967;51.634;5.566;2023-09-18T19:21:34;7.03;;;1.92;;
58152;SDS011;43967;51.634;5.566;2023-09-18T19:26:55;7.47;;;1.95;;
58152;SDS011;43967;51.634;5.566;2023-09-18T19:32:17;7.33;;;1.97;;
58152;SDS011;43967;51.634;5.566;2023-09-18T19:37:39;7.13;;;2.15;;
58152;SDS011;43967;51.634;5.566;2023-09-18T19:43:00;8.60;;;2.03;;
58152;SDS011;43967;51.634;5.566;2023-09-18T19:48:21;6.43;;;1.80;;
58152;SDS011;43967;51.634;5.566;2023-09-18T19:53:42;7.55;;;1.95;;
58152;SDS011;43967;51.634;5.566;2023-09-18T19:59:04;6.40;;;2.00;;
58152;SDS011;43967;51.634;5.566;2023-09-18T20:04:25;7.00;;;2.13;;
58152;SDS011;43967;51.634;5.566;2023-09-18T20:09:46;8.47;;;1.90;;
58152;SDS011;43967;51.634;5.566;2023-09-18T20:15:08;8.15;;;2.35;;
58152;SDS011;43967;51.634;5.566;2023-09-18T20:20:29;7.95;;;2.08;;
58152;SDS011;43967;51.634;5.566;2023-09-18T20:25:50;6.87;;;2.00;;
58152;SDS011;43967;51.634;5.566;2023-09-18T20:31:12;7.78;;;2.17;;
58152;SDS011;43967;51.634;5.566;2023-09-18T20:36:33;6.85;;;2.00;;
58152;SDS011;43967;51.634;5.566;2023-09-18T20:41:54;7.17;;;1.80;;
58152;SDS011;43967;51.634;5.566;2023-09-18T20:47:16;6.38;;;1.63;;
58152;SDS011;43967;51.634;5.566;2023-09-18T20:52:37;8.07;;;1.80;;
58152;SDS011;43967;51.634;5.566;2023-09-18T20:57:58;6.23;;;2.00;;
58152;SDS011;43967;51.634;5.566;2023-09-18T21:03:19;7.27;;;1.83;;
58152;SDS011;43967;51.634;5.566;2023-09-18T21:08:41;6.00;;;1.77;;
58152;SDS011;43967;51.634;5.566;2023-09-18T21:14:02;8.10;;;1.80;;
58152;SDS011;43967;51.634;5.566;2023-09-18T21:19:23;6.10;;;1.47;;
58152;SDS011;43967;51.634;5.566;2023-09-18T21:24:45;11.63;;;1.77;;
58152;SDS011;43967;51.634;5.566;2023-09-18T21:30:06;5.82;;;1.60;;
58152;SDS011;43967;51.634;5.566;2023-09-18T21:35:28;6.17;;;1.60;;
58152;SDS011;43967;51.634;5.566;2023-09-18T21:40:49;6.65;;;1.80;;
58152;SDS011;43967;51.634;5.566;2023-09-18T21:46:14;9.50;;;2.00;;
58152;SDS011;43967;51.634;5.566;2023-09-18T21:51:35;6.97;;;2.00;;
58152;SDS011;43967;51.634;5.566;2023-09-18T21:56:56;7.53;;;2.20;;
58152;SDS011;43967;51.634;5.566;2023-09-18T22:02:18;9.75;;;1.90;;
58152;SDS011;43967;51.634;5.566;2023-09-18T22:07:39;6.25;;;1.90;;
58152;SDS011;43967;51.634;5.566;2023-09-18T22:13:01;5.60;;;1.70;;
58152;SDS011;43967;51.634;5.566;2023-09-18T22:18:22;6.20;;;1.70;;
58152;SDS011;43967;51.634;5.566;2023-09-18T22:23:43;6.72;;;1.50;;
58152;SDS011;43967;51.634;5.566;2023-09-18T22:29:04;6.67;;;1.87;;
58152;SDS011;43967;51.634;5.566;2023-09-18T22:34:26;7.07;;;1.70;;
58152;SDS011;43967;51.634;5.566;2023-09-18T22:57:12;6.28;;;1.70;;
58152;SDS011;43967;51.634;5.566;2023-09-18T23:02:34;7.20;;;1.80;;
58152;SDS011;43967;51.634;5.566;2023-09-18T23:07:58;6.13;;;1.87;;
58152;SDS011;43967;51.634;5.566;2023-09-18T23:13:21;6.72;;;1.65;;
58152;SDS011;43967;51.634;5.566;2023-09-18T23:18:42;6.47;;;1.60;;
58152;SDS011;43967;51.634;5.566;2023-09-18T23:24:03;6.43;;;1.60;;
58152;SDS011;43967;51.634;5.566;2023-09-18T23:29:28;7.45;;;1.77;;
58152;SDS011;43967;51.634;5.566;2023-09-18T23:34:49;6.97;;;1.80;;
58152;SDS011;43967;51.634;5.566;2023-09-18T23:40:10;6.47;;;1.63;;
58152;SDS011;43967;51.634;5.566;2023-09-18T23:45:36;6.20;;;1.63;;
58152;SDS011;43967;51.634;5.566;2023-09-18T23:50:58;6.85;;;1.90;;
58152;SDS011;43967;51.634;5.566;2023-09-18T23:56:19;8.27;;;1.70;;
